createdAt,value
2023-02-22T00:01:36.286Z,16.55
2023-02-22T00:04:05.288Z,20.80
2023-02-22T00:06:32.832Z,20.88
2023-02-22T00:08:59.889Z,19.85
2023-02-22T00:11:26.691Z,20.73
2023-02-22T00:13:57.235Z,21.77
2023-02-22T00:16:25.787Z,17.77
2023-02-22T00:18:53.330Z,19.95
2023-02-22T00:21:20.063Z,21.00
2023-02-22T00:23:47.903Z,21.00
2023-02-22T00:26:19.880Z,19.65
2023-02-22T00:28:51.244Z,17.45
2023-02-22T00:31:18.892Z,16.42
2023-02-22T00:33:45.887Z,20.38
2023-02-22T00:36:13.851Z,21.55
2023-02-22T00:38:41.686Z,19.70
2023-02-22T00:41:08.322Z,16.42
2023-02-22T00:43:34.960Z,20.23
2023-02-22T00:46:02.004Z,18.15
2023-02-22T00:48:29.093Z,18.58
2023-02-22T00:50:55.793Z,19.02
2023-02-22T00:53:26.465Z,18.80
2023-02-22T00:55:53.946Z,19.17
2023-02-22T00:58:20.986Z,20.30
2023-02-22T01:00:48.694Z,19.88
2023-02-22T01:03:18.460Z,16.77
2023-02-22T01:05:45.626Z,15.13
2023-02-22T01:08:14.182Z,18.80
2023-02-22T01:10:41.040Z,16.17
2023-02-22T01:13:09.405Z,17.65
2023-02-22T01:15:38.197Z,18.40
2023-02-22T01:18:05.495Z,14.15
2023-02-22T01:20:32.908Z,15.50
2023-02-22T01:23:03.503Z,18.98
2023-02-22T01:25:31.495Z,18.77
2023-02-22T01:28:00.021Z,17.13
2023-02-22T01:30:30.046Z,20.48
2023-02-22T01:32:57.196Z,19.52
2023-02-22T01:35:27.956Z,19.23
2023-02-22T01:37:55.122Z,21.33
2023-02-22T01:40:30.607Z,19.70
2023-02-22T01:43:00.188Z,18.02
2023-02-22T01:45:32.827Z,22.27
2023-02-22T01:48:11.152Z,18.35
2023-02-22T01:50:41.257Z,18.05
2023-02-22T01:53:10.848Z,19.15
2023-02-22T01:55:39.081Z,21.25
2023-02-22T01:58:07.035Z,21.85
2023-02-22T02:00:33.657Z,21.65
2023-02-22T02:03:04.827Z,18.65
2023-02-22T02:05:32.323Z,17.17
2023-02-22T02:08:03.599Z,20.23
2023-02-22T02:10:32.386Z,18.27
2023-02-22T02:12:59.145Z,16.13
2023-02-22T02:15:29.241Z,14.32
2023-02-22T02:18:01.341Z,13.95
2023-02-22T02:20:42.249Z,13.73
2023-02-22T02:23:24.417Z,18.17
2023-02-22T02:25:56.606Z,12.73
2023-02-22T02:29:00.548Z,17.33
2023-02-22T02:31:48.660Z,13.75
2023-02-22T02:34:31.022Z,16.88
2023-02-22T02:37:07.428Z,9.00
2023-02-22T02:39:41.112Z,16.98
2023-02-22T02:42:12.654Z,16.90
2023-02-22T02:44:50.654Z,15.20
2023-02-22T02:47:42.362Z,15.65
2023-02-22T02:50:15.322Z,16.88
2023-02-22T02:52:43.284Z,16.67
2023-02-22T02:55:11.377Z,17.60
2023-02-22T02:57:39.082Z,16.65
2023-02-22T03:00:22.423Z,9.20
2023-02-22T03:03:23.378Z,18.13
2023-02-22T03:06:23.808Z,16.95
2023-02-22T03:09:18.515Z,15.13
2023-02-22T03:12:18.795Z,14.43
2023-02-22T03:15:21.957Z,16.20
2023-02-22T03:18:01.859Z,16.88
2023-02-22T03:20:43.173Z,17.20
2023-02-22T03:23:47.520Z,15.82
2023-02-22T03:26:23.925Z,16.35
2023-02-22T03:28:54.337Z,15.68
2023-02-22T03:31:26.069Z,17.05
2023-02-22T03:33:57.495Z,13.95
2023-02-22T03:36:33.455Z,16.35
2023-02-22T03:39:04.283Z,15.95
2023-02-22T03:41:33.349Z,13.68
2023-02-22T03:44:04.585Z,18.40
2023-02-22T03:46:32.776Z,14.30
2023-02-22T03:49:05.190Z,16.65
2023-02-22T03:51:31.813Z,16.38
2023-02-22T03:53:58.497Z,11.75
2023-02-22T03:56:41.419Z,13.25
2023-02-22T03:59:09.995Z,16.55
2023-02-22T04:01:37.301Z,14.63
2023-02-22T04:04:04.495Z,13.93
2023-02-22T04:06:31.335Z,16.60
2023-02-22T04:08:57.905Z,16.73
2023-02-22T04:11:24.573Z,15.27
2023-02-22T04:13:51.197Z,15.98
2023-02-22T04:16:17.733Z,15.55
2023-02-22T04:18:44.297Z,14.27
2023-02-22T04:21:10.814Z,15.40
2023-02-22T04:23:37.362Z,16.40
2023-02-22T04:26:03.914Z,14.38
2023-02-22T04:28:30.468Z,13.73
2023-02-22T04:30:57.091Z,15.32
2023-02-22T04:33:23.722Z,14.80
2023-02-22T04:35:51.597Z,13.65
2023-02-22T04:38:18.509Z,12.10
2023-02-22T04:40:46.180Z,13.20
2023-02-22T04:43:12.707Z,15.90
2023-02-22T04:45:39.256Z,14.85
2023-02-22T04:48:05.996Z,12.32
2023-02-22T04:50:32.536Z,15.68
2023-02-22T04:52:59.087Z,15.10
2023-02-22T04:55:25.610Z,19.67
2023-02-22T04:57:52.082Z,18.50
2023-02-22T05:00:21.872Z,19.45
2023-02-22T05:02:49.455Z,16.60
2023-02-22T05:05:21.593Z,18.52
2023-02-22T05:07:49.192Z,14.68
2023-02-22T05:10:16.534Z,15.45
2023-02-22T05:12:43.137Z,14.65
2023-02-22T05:15:10.658Z,12.93
2023-02-22T05:17:37.397Z,19.83
2023-02-22T05:20:05.135Z,17.35
2023-02-22T05:22:31.623Z,17.60
2023-02-22T05:24:58.563Z,16.15
2023-02-22T05:27:25.156Z,19.33
2023-02-22T05:29:51.834Z,18.17
2023-02-22T05:32:18.478Z,19.73
2023-02-22T05:34:45.656Z,17.40
2023-02-22T05:37:12.235Z,18.00
2023-02-22T05:39:38.820Z,19.27
2023-02-22T05:42:05.558Z,16.65
2023-02-22T05:44:32.073Z,15.57
2023-02-22T05:46:58.564Z,19.25
2023-02-22T05:49:25.199Z,16.30
2023-02-22T05:51:51.813Z,16.55
2023-02-22T05:54:18.391Z,17.00
2023-02-22T05:56:44.931Z,17.33
2023-02-22T05:59:11.486Z,20.25
2023-02-22T06:01:38.071Z,22.48
2023-02-22T06:04:04.704Z,18.80
2023-02-22T06:06:31.223Z,20.63
2023-02-22T06:08:57.775Z,22.65
2023-02-22T06:11:24.609Z,18.13
2023-02-22T06:13:52.572Z,21.80
2023-02-22T06:16:21.289Z,22.00
2023-02-22T06:18:48.281Z,21.98
2023-02-22T06:21:15.011Z,21.33
2023-02-22T06:23:41.618Z,23.65
2023-02-22T06:26:08.208Z,24.98
2023-02-22T06:28:34.693Z,24.20
2023-02-22T06:31:01.181Z,23.70
2023-02-22T06:33:27.699Z,22.23
2023-02-22T06:35:54.272Z,19.73
2023-02-22T06:38:22.969Z,18.20
2023-02-22T06:40:49.448Z,20.80
2023-02-22T06:43:16.752Z,16.13
2023-02-22T06:45:43.694Z,17.42
2023-02-22T06:48:10.262Z,19.98
2023-02-22T06:50:36.758Z,18.42
2023-02-22T06:53:03.692Z,20.13
2023-02-22T06:55:33.298Z,19.20
2023-02-22T06:58:00.386Z,17.08
2023-02-22T07:00:28.923Z,17.98
2023-02-22T07:02:56.201Z,14.75
2023-02-22T07:05:23.751Z,16.48
2023-02-22T07:07:52.679Z,16.27
2023-02-22T07:10:25.270Z,14.98
2023-02-22T07:12:54.844Z,14.48
2023-02-22T07:15:23.997Z,13.70
2023-02-22T07:17:52.314Z,17.77
2023-02-22T07:20:20.720Z,14.95
2023-02-22T07:22:48.076Z,14.98
2023-02-22T07:25:14.977Z,13.65
2023-02-22T07:27:42.759Z,14.23
2023-02-22T07:30:26.354Z,12.40
2023-02-22T07:32:54.717Z,15.55
2023-02-22T07:35:30.017Z,13.82
2023-02-22T07:37:57.498Z,16.63
2023-02-22T07:40:25.421Z,16.02
2023-02-22T07:42:56.138Z,17.38
2023-02-22T07:45:25.031Z,15.77
2023-02-22T07:47:51.636Z,18.10
2023-02-22T07:50:19.712Z,15.88
2023-02-22T07:52:47.870Z,15.50
2023-02-22T07:55:16.999Z,14.63
2023-02-22T07:57:45.733Z,14.50
2023-02-22T08:00:14.568Z,16.48
2023-02-22T08:02:42.265Z,16.83
2023-02-22T08:05:10.768Z,15.98
2023-02-22T08:07:38.068Z,17.77
2023-02-22T08:10:07.833Z,14.68
2023-02-22T08:12:36.138Z,16.63
2023-02-22T08:15:08.669Z,13.77
2023-02-22T08:17:35.226Z,14.75
2023-02-22T08:20:01.806Z,14.45
2023-02-22T08:22:29.178Z,15.05
2023-02-22T08:24:56.013Z,12.20
2023-02-22T08:27:25.143Z,9.77
2023-02-22T08:29:52.140Z,12.35
2023-02-22T08:32:19.465Z,10.52
2023-02-22T08:34:46.145Z,10.13
2023-02-22T08:37:12.817Z,10.13
2023-02-22T08:39:39.356Z,13.70
2023-02-22T08:42:06.244Z,12.32
2023-02-22T08:44:32.796Z,13.02
2023-02-22T08:46:59.333Z,12.70
2023-02-22T08:49:25.954Z,12.88
2023-02-22T08:51:52.500Z,13.38
2023-02-22T08:54:19.099Z,15.60
2023-02-22T08:56:45.583Z,11.73
2023-02-22T08:59:12.090Z,12.63
2023-02-22T09:01:39.017Z,13.43
2023-02-22T09:04:06.048Z,12.40
2023-02-22T09:06:32.701Z,13.73
2023-02-22T09:08:59.225Z,13.73
2023-02-22T09:11:25.735Z,13.02
2023-02-22T09:13:52.256Z,12.98
2023-02-22T09:16:19.139Z,12.93
2023-02-22T09:18:45.651Z,13.48
2023-02-22T09:21:12.520Z,12.82
2023-02-22T09:23:39.036Z,13.38
2023-02-22T09:26:08.681Z,12.30
2023-02-22T09:28:35.199Z,13.27
2023-02-22T09:31:02.187Z,13.02
2023-02-22T09:33:28.833Z,12.70
2023-02-22T09:35:55.403Z,12.70
2023-02-22T09:38:24.841Z,12.85
2023-02-22T09:41:02.528Z,12.18
2023-02-22T09:44:12.206Z,13.02
2023-02-22T09:46:42.175Z,12.77
2023-02-22T09:49:25.111Z,12.82
2023-02-22T09:52:04.226Z,12.07
2023-02-22T09:54:40.262Z,11.20
2023-02-22T09:57:18.105Z,11.38
2023-02-22T09:59:57.402Z,13.10
2023-02-22T10:02:29.475Z,10.95
2023-02-22T10:05:05.883Z,12.60
2023-02-22T10:07:39.005Z,12.07
2023-02-22T10:10:06.697Z,13.57
2023-02-22T10:12:56.426Z,13.02
2023-02-22T10:15:56.110Z,13.68
2023-02-22T10:18:44.235Z,11.53
2023-02-22T10:21:30.892Z,12.27
2023-02-22T10:24:26.435Z,11.90
2023-02-22T10:26:55.487Z,13.35
2023-02-22T10:29:41.584Z,12.38
2023-02-22T10:32:22.069Z,13.00
2023-02-22T10:34:53.826Z,12.88
2023-02-22T10:37:24.000Z,12.18
2023-02-22T10:39:53.018Z,11.32
2023-02-22T10:42:22.652Z,12.05
2023-02-22T10:44:49.162Z,12.87
2023-02-22T10:47:18.739Z,11.60
2023-02-22T10:49:53.581Z,12.02
2023-02-22T10:52:33.998Z,12.95
2023-02-22T10:55:14.708Z,11.18
2023-02-22T10:57:46.272Z,10.47
2023-02-22T11:00:33.151Z,11.98
2023-02-22T11:03:01.941Z,12.45
2023-02-22T11:05:37.263Z,11.32
2023-02-22T11:08:22.093Z,12.77
2023-02-22T11:10:50.403Z,12.80
2023-02-22T11:13:39.475Z,14.60
2023-02-22T11:16:34.133Z,12.80
2023-02-22T11:19:07.771Z,12.18
2023-02-22T11:21:34.481Z,12.68
2023-02-22T11:24:10.894Z,13.57
2023-02-22T11:26:49.927Z,14.25
2023-02-22T11:29:28.104Z,13.38
2023-02-22T11:31:56.057Z,9.35
2023-02-22T11:34:34.901Z,13.80
2023-02-22T11:37:16.793Z,14.00
2023-02-22T11:39:44.745Z,14.77
2023-02-22T11:42:23.470Z,13.98
2023-02-22T11:45:09.290Z,13.98
2023-02-22T11:47:46.411Z,11.98
2023-02-22T11:50:24.962Z,14.27
2023-02-22T11:53:04.597Z,13.93
2023-02-22T11:56:00.424Z,13.90
2023-02-22T11:58:45.752Z,16.02
2023-02-22T12:01:23.487Z,13.85
2023-02-22T12:04:15.850Z,14.80
2023-02-22T12:06:57.137Z,14.90
2023-02-22T12:09:54.600Z,15.55
2023-02-22T12:12:42.933Z,14.13
2023-02-22T12:15:19.943Z,15.05
2023-02-22T12:18:00.812Z,17.33
2023-02-22T12:20:39.743Z,17.10
2023-02-22T12:23:15.241Z,16.95
2023-02-22T12:26:16.629Z,13.02
2023-02-22T12:28:59.459Z,15.25
2023-02-22T12:31:35.311Z,17.37
2023-02-22T12:34:26.570Z,15.98
2023-02-22T12:37:17.214Z,17.33
2023-02-22T12:39:53.707Z,17.02
2023-02-22T12:42:35.377Z,18.92
2023-02-22T12:45:11.416Z,16.90
2023-02-22T12:47:49.600Z,16.75
2023-02-22T12:50:24.909Z,16.27
2023-02-22T12:53:47.042Z,19.17
2023-02-22T12:56:28.494Z,19.75
2023-02-22T12:59:12.597Z,19.87
2023-02-22T13:01:44.087Z,18.75
2023-02-22T13:04:20.448Z,21.80
2023-02-22T13:07:25.623Z,21.50
2023-02-22T13:10:26.318Z,19.60
2023-02-22T13:13:21.830Z,19.67
2023-02-22T13:16:39.562Z,20.88
2023-02-22T13:19:21.260Z,15.88
2023-02-22T13:21:47.789Z,19.98
2023-02-22T13:24:30.410Z,18.77
2023-02-22T13:27:06.577Z,18.57
2023-02-22T13:29:46.900Z,21.25
2023-02-22T13:32:43.611Z,17.77
2023-02-22T13:35:35.101Z,22.50
2023-02-22T13:38:39.021Z,23.92
2023-02-22T13:41:20.440Z,22.47
2023-02-22T13:44:22.878Z,24.85
2023-02-22T13:46:58.320Z,24.38
2023-02-22T13:49:53.277Z,28.80
2023-02-22T13:52:26.778Z,25.52
2023-02-22T13:55:02.287Z,23.87
2023-02-22T13:57:35.301Z,22.95
2023-02-22T14:00:21.080Z,26.67
2023-02-22T14:03:01.978Z,23.90
2023-02-22T14:05:52.570Z,31.35
2023-02-22T14:08:19.093Z,29.23
2023-02-22T14:10:52.965Z,27.17
2023-02-22T14:13:22.671Z,28.35
2023-02-22T14:15:58.612Z,30.33
2023-02-22T14:18:30.757Z,32.33
2023-02-22T14:21:08.848Z,32.50
2023-02-22T14:23:36.725Z,31.70
2023-02-22T14:26:30.394Z,32.20
2023-02-22T14:29:01.577Z,34.92
2023-02-22T14:31:36.859Z,29.42
2023-02-22T14:34:19.195Z,33.70
2023-02-22T14:37:08.661Z,33.28
2023-02-22T14:39:44.143Z,32.47
2023-02-22T14:42:19.656Z,32.28
2023-02-22T14:45:12.735Z,33.22
2023-02-22T14:48:01.310Z,31.43
2023-02-22T14:50:45.213Z,32.58
2023-02-22T14:53:32.003Z,32.03
2023-02-22T14:56:06.976Z,30.52
2023-02-22T14:58:41.309Z,35.63
2023-02-22T15:01:48.841Z,30.53
2023-02-22T15:04:27.797Z,29.65
2023-02-22T15:06:56.358Z,28.02
2023-02-22T15:09:29.074Z,30.17
2023-02-22T15:12:05.417Z,28.90
2023-02-22T15:14:41.717Z,27.33
2023-02-22T15:17:17.514Z,27.10
2023-02-22T15:19:46.228Z,24.42
2023-02-22T15:22:35.754Z,26.65
2023-02-22T15:25:06.100Z,24.48
2023-02-22T15:27:37.452Z,25.50
2023-02-22T15:30:14.942Z,23.98
2023-02-22T15:32:56.980Z,23.23
2023-02-22T15:35:30.716Z,20.95
2023-02-22T15:38:17.681Z,19.98
2023-02-22T15:40:45.589Z,19.47
2023-02-22T15:43:25.258Z,19.95
2023-02-22T15:45:52.279Z,20.50
2023-02-22T15:48:19.446Z,20.38
2023-02-22T15:51:12.415Z,19.88
2023-02-22T15:53:46.032Z,18.07
2023-02-22T15:56:16.720Z,17.98
2023-02-22T15:58:46.273Z,18.17
2023-02-22T16:01:18.763Z,17.25
2023-02-22T16:03:54.280Z,17.90
2023-02-22T16:06:36.041Z,16.40
2023-02-22T16:09:10.607Z,16.98
2023-02-22T16:11:43.254Z,16.90
2023-02-22T16:14:29.270Z,16.45
2023-02-22T16:17:35.453Z,16.60
2023-02-22T16:20:22.004Z,15.23
2023-02-22T16:22:49.747Z,17.17
2023-02-22T16:25:33.120Z,16.23
2023-02-22T16:28:06.187Z,15.27
2023-02-22T16:30:39.469Z,16.38
2023-02-22T16:33:16.526Z,15.27
2023-02-22T16:35:52.336Z,15.50
2023-02-22T16:38:19.721Z,15.05
2023-02-22T16:40:54.691Z,16.77
2023-02-22T16:43:33.404Z,18.63
2023-02-22T16:46:02.032Z,15.07
2023-02-22T16:48:30.993Z,15.95
2023-02-22T16:51:02.419Z,16.13
2023-02-22T16:53:32.116Z,16.95
2023-02-22T16:56:04.034Z,16.90
2023-02-22T16:58:34.013Z,16.95
2023-02-22T17:01:00.527Z,15.75
2023-02-22T17:03:27.133Z,15.38
2023-02-22T17:05:53.943Z,16.08
2023-02-22T17:08:20.584Z,14.75
2023-02-22T17:10:47.391Z,15.93
2023-02-22T17:13:23.659Z,15.18
2023-02-22T17:15:52.020Z,14.88
2023-02-22T17:18:22.770Z,14.90
2023-02-22T17:20:51.706Z,14.70
2023-02-22T17:23:19.849Z,14.43
2023-02-22T17:25:55.158Z,16.35
2023-02-22T17:28:24.433Z,16.35
2023-02-22T17:30:52.564Z,15.38
2023-02-22T17:33:27.450Z,16.42
2023-02-22T17:35:56.354Z,17.55
2023-02-22T17:38:23.057Z,16.45
2023-02-22T17:40:54.838Z,15.20
2023-02-22T17:43:22.517Z,15.93
2023-02-22T17:45:49.199Z,17.55
2023-02-22T17:48:17.873Z,15.30
2023-02-22T17:50:46.545Z,16.00
2023-02-22T17:53:14.123Z,15.77
2023-02-22T17:55:42.634Z,16.30
2023-02-22T17:58:14.844Z,16.70
2023-02-22T18:00:48.043Z,16.52
2023-02-22T18:03:21.139Z,16.70
2023-02-22T18:05:49.475Z,17.15
2023-02-22T18:08:16.796Z,16.00
2023-02-22T18:10:44.257Z,15.38
2023-02-22T18:13:16.744Z,16.77
2023-02-22T18:15:44.006Z,17.00
2023-02-22T18:18:10.667Z,17.67
2023-02-22T18:20:40.335Z,17.70
2023-02-22T18:23:08.799Z,18.48
2023-02-22T18:25:36.626Z,17.27
2023-02-22T18:28:06.195Z,18.35
2023-02-22T18:30:35.926Z,18.10
2023-02-22T18:33:03.886Z,17.02
2023-02-22T18:35:31.180Z,17.35
2023-02-22T18:37:57.757Z,16.63
2023-02-22T18:40:24.278Z,17.20
2023-02-22T18:42:50.753Z,16.88
2023-02-22T18:45:17.414Z,17.83
2023-02-22T18:47:45.585Z,17.58
2023-02-22T18:50:13.062Z,18.23
2023-02-22T18:52:46.389Z,17.23
2023-02-22T18:55:14.596Z,14.68
2023-02-22T18:57:41.596Z,18.10
2023-02-22T19:00:10.834Z,18.70
2023-02-22T19:02:37.625Z,16.30
2023-02-22T19:05:06.214Z,18.25
2023-02-22T19:07:34.240Z,16.90
2023-02-22T19:10:02.515Z,17.38
2023-02-22T19:12:31.490Z,18.00
2023-02-22T19:14:59.418Z,16.27
2023-02-22T19:17:28.599Z,16.92
2023-02-22T19:19:55.677Z,20.25
2023-02-22T19:22:26.057Z,17.77
2023-02-22T19:24:56.210Z,17.30
2023-02-22T19:27:22.827Z,16.92
2023-02-22T19:29:50.035Z,17.13
2023-02-22T19:32:17.612Z,15.65
2023-02-22T19:34:44.549Z,17.13
2023-02-22T19:37:13.194Z,16.90
2023-02-22T19:39:42.270Z,17.27
2023-02-22T19:42:24.346Z,17.17
2023-02-22T19:44:52.647Z,17.30
2023-02-22T19:47:19.490Z,16.77
2023-02-22T19:49:47.123Z,18.08
2023-02-22T19:52:13.677Z,16.88
2023-02-22T19:54:40.209Z,19.00
2023-02-22T19:57:06.794Z,19.00
2023-02-22T19:59:33.342Z,17.63
2023-02-22T20:01:59.916Z,17.15
2023-02-22T20:04:30.569Z,18.92
2023-02-22T20:06:57.746Z,19.58
2023-02-22T20:09:30.205Z,18.97
2023-02-22T20:11:56.879Z,17.95
2023-02-22T20:14:26.210Z,18.42
2023-02-22T20:16:54.208Z,17.88
2023-02-22T20:19:22.670Z,18.92
2023-02-22T20:21:49.564Z,20.87
2023-02-22T20:24:18.258Z,20.70
2023-02-22T20:26:46.434Z,17.92
2023-02-22T20:29:14.892Z,17.83
2023-02-22T20:31:43.104Z,18.55
2023-02-22T20:34:10.778Z,18.20
2023-02-22T20:36:40.269Z,18.42
2023-02-22T20:39:13.222Z,18.63
2023-02-22T20:41:42.585Z,17.75
2023-02-22T20:44:13.542Z,18.42
2023-02-22T20:46:40.083Z,18.43
2023-02-22T20:49:08.712Z,18.48
2023-02-22T20:51:36.847Z,19.05
2023-02-22T20:54:03.536Z,18.65
2023-02-22T20:56:32.172Z,17.85
2023-02-22T20:59:01.317Z,18.57
2023-02-22T21:01:28.854Z,18.40
2023-02-22T21:04:00.508Z,20.02
2023-02-22T21:06:27.983Z,21.40
2023-02-22T21:09:00.279Z,20.13
2023-02-22T21:11:30.598Z,18.90
2023-02-22T21:13:58.112Z,19.83
2023-02-22T21:16:28.709Z,19.40
2023-02-22T21:19:00.964Z,19.48
2023-02-22T21:21:28.797Z,18.35
2023-02-22T21:23:57.377Z,19.37
2023-02-22T21:26:27.485Z,18.90
2023-02-22T21:28:55.207Z,18.60
2023-02-22T21:31:24.260Z,18.73
2023-02-22T21:33:53.617Z,18.88
2023-02-22T21:36:25.107Z,18.97
2023-02-22T21:38:58.137Z,16.95
2023-02-22T21:41:27.857Z,17.55
2023-02-22T21:43:56.914Z,16.73
2023-02-22T21:46:24.623Z,17.92
2023-02-22T21:48:51.373Z,18.17
2023-02-22T21:51:19.943Z,17.15
2023-02-22T21:53:52.426Z,19.60
2023-02-22T21:56:24.585Z,18.05
2023-02-22T21:58:59.276Z,17.98
2023-02-22T22:01:30.902Z,18.43
2023-02-22T22:04:00.310Z,20.27
2023-02-22T22:06:28.513Z,19.77
2023-02-22T22:08:56.382Z,17.90
2023-02-22T22:11:25.043Z,19.45
2023-02-22T22:13:53.852Z,16.30
2023-02-22T22:16:22.281Z,16.75
2023-02-22T22:18:48.875Z,18.27
2023-02-22T22:21:22.806Z,17.52
2023-02-22T22:23:54.286Z,18.55
2023-02-22T22:26:21.794Z,17.07
2023-02-22T22:28:52.027Z,16.83
2023-02-22T22:31:21.217Z,17.10
2023-02-22T22:33:48.524Z,18.75
2023-02-22T22:36:17.420Z,18.83
2023-02-22T22:38:47.012Z,17.43
2023-02-22T22:41:21.953Z,16.33
2023-02-22T22:43:48.645Z,18.65
2023-02-22T22:46:17.390Z,17.38
2023-02-22T22:48:47.499Z,18.08
2023-02-22T22:51:18.503Z,14.53
2023-02-22T22:53:47.462Z,15.27
2023-02-22T22:56:29.222Z,16.73
2023-02-22T22:58:58.233Z,15.70
2023-02-22T23:01:32.489Z,15.85
2023-02-22T23:04:02.193Z,16.17
2023-02-22T23:06:37.739Z,17.05
2023-02-22T23:09:11.667Z,18.38
2023-02-22T23:11:44.608Z,16.38
2023-02-22T23:14:18.973Z,17.02
2023-02-22T23:16:47.233Z,17.13
2023-02-22T23:19:15.679Z,15.07
2023-02-22T23:21:49.621Z,14.27
2023-02-22T23:24:19.405Z,15.25
2023-02-22T23:26:49.496Z,14.23
2023-02-22T23:29:18.544Z,15.63
2023-02-22T23:31:48.203Z,14.13
2023-02-22T23:34:16.989Z,16.63
2023-02-22T23:37:03.970Z,14.77
2023-02-22T23:39:30.746Z,13.38
2023-02-22T23:41:59.415Z,14.13
2023-02-22T23:44:27.353Z,13.50
2023-02-22T23:46:56.635Z,13.70
2023-02-22T23:49:26.390Z,14.38
2023-02-22T23:51:53.658Z,12.10
2023-02-22T23:54:21.309Z,12.00
2023-02-22T23:56:56.768Z,10.52
2023-02-22T23:59:26.030Z,10.02
